createdAt,value
2019-04-27T00:02:23.123Z,65.50
2019-04-27T00:05:11.211Z,68.20
2019-04-27T00:08:02.952Z,68.20
2019-04-27T00:10:35.433Z,68.50
2019-04-27T00:13:15.408Z,68.20
2019-04-27T00:16:09.890Z,67.10
2019-04-27T00:19:01.703Z,67.00
2019-04-27T00:24:40.392Z,66.30
2019-04-27T00:27:13.424Z,66.60
2019-04-27T00:29:44.993Z,67.10
2019-04-27T00:32:19.683Z,67.30
2019-04-27T00:34:53.257Z,67.40
2019-04-27T00:37:34.009Z,67.40
2019-04-27T00:40:07.609Z,67.50
2019-04-27T00:42:40.660Z,66.30
2019-04-27T00:45:13.534Z,65.90
2019-04-27T00:47:56.552Z,66.40
2019-04-27T00:50:23.413Z,65.40
2019-04-27T00:52:56.436Z,64.90
2019-04-27T00:55:29.648Z,64.40
2019-04-27T00:58:05.604Z,64.30
2019-04-27T01:00:56.215Z,63.90
2019-04-27T01:03:30.895Z,63.40
2019-04-27T01:06:07.005Z,63.50
2019-04-27T01:08:46.125Z,63.70
2019-04-27T01:11:17.870Z,63.10
2019-04-27T01:13:51.296Z,62.70
2019-04-27T01:16:24.728Z,62.40
2019-04-27T01:18:58.834Z,62.60
2019-04-27T01:21:32.410Z,62.00
2019-04-27T01:24:04.918Z,61.40
2019-04-27T01:26:42.474Z,61.10
2019-04-27T01:29:15.565Z,60.90
2019-04-27T01:31:48.661Z,60.50
2019-04-27T01:34:25.246Z,60.40
2019-04-27T01:37:00.779Z,60.00
2019-04-27T01:39:33.348Z,59.80
2019-04-27T01:42:06.110Z,59.70
2019-04-27T01:44:39.730Z,60.00
2019-04-27T01:47:12.667Z,59.50
2019-04-27T01:49:46.766Z,59.10
2019-04-27T01:52:26.086Z,59.00
2019-04-27T01:55:08.416Z,59.10
2019-04-27T01:57:34.006Z,58.90
2019-04-27T02:00:09.717Z,58.90
2019-04-27T02:02:43.745Z,58.90
2019-04-27T02:05:19.005Z,58.50
2019-04-27T02:07:53.654Z,58.50
2019-04-27T02:10:25.330Z,58.50
2019-04-27T02:13:00.166Z,58.30
2019-04-27T02:15:32.632Z,58.20
2019-04-27T02:18:05.230Z,58.00
2019-04-27T02:20:39.514Z,58.10
2019-04-27T02:23:11.760Z,58.20
2019-04-27T02:25:44.194Z,57.90
2019-04-27T02:28:35.112Z,57.80
2019-04-27T02:31:19.300Z,57.70
2019-04-27T02:33:59.554Z,57.70
2019-04-27T02:36:31.571Z,57.40
2019-04-27T02:39:10.045Z,57.70
2019-04-27T02:41:41.324Z,56.80
2019-04-27T02:44:15.398Z,56.80
2019-04-27T02:47:00.291Z,56.10
2019-04-27T02:49:36.530Z,56.20
2019-04-27T02:52:12.305Z,56.30
2019-04-27T02:54:44.948Z,56.20
2019-04-27T02:57:16.441Z,55.10
2019-04-27T02:59:50.277Z,55.40
2019-04-27T03:02:34.114Z,55.20
2019-04-27T03:05:07.595Z,55.20
2019-04-27T03:07:42.755Z,55.50
2019-04-27T03:10:14.288Z,55.50
2019-04-27T03:12:54.028Z,55.40
2019-04-27T03:15:30.569Z,55.30
2019-04-27T03:18:06.326Z,54.50
2019-04-27T03:20:40.343Z,54.40
2019-04-27T03:23:16.723Z,54.90
2019-04-27T03:25:54.004Z,54.60
2019-04-27T03:28:26.271Z,54.60
2019-04-27T03:31:02.300Z,54.40
2019-04-27T03:33:36.888Z,54.50
2019-04-27T03:36:13.181Z,53.40
2019-04-27T03:38:45.826Z,53.80
2019-04-27T03:41:19.983Z,53.40
2019-04-27T03:43:59.376Z,52.90
2019-04-27T03:46:32.650Z,52.10
2019-04-27T03:49:06.713Z,52.50
2019-04-27T03:51:43.759Z,51.60
2019-04-27T03:54:21.955Z,50.70
2019-04-27T03:56:59.007Z,51.00
2019-04-27T03:59:32.812Z,50.40
2019-04-27T04:02:05.196Z,50.50
2019-04-27T04:04:40.600Z,50.50
2019-04-27T04:07:16.896Z,50.60
2019-04-27T04:09:50.267Z,49.90
2019-04-27T04:12:30.352Z,50.10
2019-04-27T04:15:03.071Z,50.10
2019-04-27T04:17:34.675Z,49.30
2019-04-27T04:20:10.186Z,47.20
2019-04-27T04:22:42.784Z,47.10
2019-04-27T04:25:19.878Z,47.00
2019-04-27T04:27:54.805Z,46.80
2019-04-27T04:30:30.031Z,47.40
2019-04-27T04:33:01.872Z,47.30
2019-04-27T04:35:39.492Z,47.30
2019-04-27T04:38:11.145Z,46.80
2019-04-27T04:41:03.772Z,46.50
2019-04-27T04:43:39.794Z,46.60
2019-04-27T04:46:33.484Z,46.50
2019-04-27T04:49:06.472Z,45.80
2019-04-27T04:51:40.154Z,44.40
2019-04-27T04:54:16.013Z,44.80
2019-04-27T04:56:49.399Z,44.80
2019-04-27T04:59:21.407Z,43.80
2019-04-27T05:01:55.924Z,44.50
2019-04-27T05:04:29.035Z,44.80
2019-04-27T05:07:03.006Z,43.30
2019-04-27T05:09:37.334Z,43.80
2019-04-27T05:12:10.282Z,43.10
2019-04-27T05:14:42.992Z,43.60
2019-04-27T05:17:14.488Z,44.00
2019-04-27T05:19:49.003Z,43.90
2019-04-27T05:22:21.357Z,42.70
2019-04-27T05:24:55.224Z,40.60
2019-04-27T05:27:29.018Z,40.20
2019-04-27T05:30:03.988Z,40.40
2019-04-27T05:32:36.826Z,41.10
2019-04-27T05:35:11.519Z,41.80
2019-04-27T05:37:44.499Z,40.40
2019-04-27T05:40:18.962Z,40.00
2019-04-27T05:42:55.184Z,40.20
2019-04-27T05:46:04.743Z,40.70
2019-04-27T05:48:38.935Z,41.20
2019-04-27T05:51:12.234Z,40.80
2019-04-27T05:53:44.985Z,40.80
2019-04-27T05:56:16.422Z,40.40
2019-04-27T05:58:51.271Z,41.70
2019-04-27T06:01:24.008Z,41.00
2019-04-27T06:03:58.831Z,40.70
2019-04-27T06:06:31.392Z,41.10
2019-04-27T06:09:04.065Z,41.40
2019-04-27T06:11:39.841Z,41.00
2019-04-27T06:14:12.501Z,40.40
2019-04-27T06:16:46.611Z,40.50
2019-04-27T06:19:19.328Z,40.20
2019-04-27T06:21:51.061Z,40.00
2019-04-27T06:24:24.931Z,39.40
2019-04-27T06:26:59.522Z,39.90
2019-04-27T06:29:33.656Z,40.20
2019-04-27T06:32:09.009Z,39.90
2019-04-27T06:34:41.270Z,39.50
2019-04-27T06:37:14.556Z,40.10
2019-04-27T06:39:49.462Z,39.80
2019-04-27T06:42:22.480Z,38.90
2019-04-27T06:44:55.864Z,39.10
2019-04-27T06:47:29.497Z,37.50
2019-04-27T06:50:04.526Z,38.00
2019-04-27T06:52:39.103Z,38.40
2019-04-27T06:55:14.811Z,38.20
2019-04-27T06:57:48.924Z,37.40
2019-04-27T07:00:20.586Z,37.40
2019-04-27T07:05:46.006Z,37.30
2019-04-27T07:08:18.739Z,36.20
2019-04-27T07:10:51.322Z,36.20
2019-04-27T07:13:24.257Z,36.80
2019-04-27T07:15:55.817Z,37.00
2019-04-27T07:18:31.057Z,36.90
2019-04-27T07:21:16.169Z,37.40
2019-04-27T07:23:41.213Z,36.90
2019-04-27T07:26:13.855Z,37.50
2019-04-27T07:28:45.778Z,37.90
2019-04-27T07:31:20.154Z,36.00
2019-04-27T07:33:52.759Z,35.30
2019-04-27T07:36:25.324Z,35.80
2019-04-27T07:38:59.647Z,36.70
2019-04-27T07:41:31.677Z,36.90
2019-04-27T07:44:04.836Z,37.00
2019-04-27T07:46:36.405Z,37.30
2019-04-27T07:49:10.904Z,37.30
2019-04-27T07:51:45.008Z,36.30
2019-04-27T07:54:19.241Z,37.20
2019-04-27T07:56:52.225Z,37.40
2019-04-27T07:59:24.923Z,38.10
2019-04-27T08:01:59.115Z,38.40
2019-04-27T08:04:31.616Z,37.90
2019-04-27T08:07:04.221Z,38.20
2019-04-27T08:09:36.949Z,38.70
2019-04-27T08:12:12.149Z,39.10
2019-04-27T08:14:45.286Z,39.20
2019-04-27T08:17:22.386Z,38.90
2019-04-27T08:19:56.903Z,38.10
2019-04-27T08:22:29.632Z,38.30
2019-04-27T08:25:02.281Z,39.00
2019-04-27T08:27:36.357Z,39.10
2019-04-27T08:30:29.420Z,39.40
2019-04-27T08:33:05.969Z,39.20
2019-04-27T08:35:40.660Z,39.30
2019-04-27T08:38:12.305Z,39.20
2019-04-27T08:40:44.893Z,39.40
2019-04-27T08:43:21.646Z,39.40
2019-04-27T08:45:56.647Z,38.80
2019-04-27T08:48:34.662Z,39.00
2019-04-27T08:51:05.027Z,39.20
2019-04-27T08:53:39.601Z,38.70
2019-04-27T08:56:11.942Z,38.50
2019-04-27T08:58:46.489Z,39.00
2019-04-27T09:01:20.781Z,38.90
2019-04-27T09:03:53.019Z,39.00
2019-04-27T09:06:25.207Z,39.50
2019-04-27T09:09:01.946Z,39.80
2019-04-27T09:11:39.227Z,40.20
2019-04-27T09:14:12.326Z,40.40
2019-04-27T09:16:59.532Z,40.30
2019-04-27T09:19:26.005Z,40.40
2019-04-27T09:22:16.550Z,40.50
2019-04-27T09:24:49.389Z,40.60
2019-04-27T09:27:22.249Z,41.00
2019-04-27T09:29:53.914Z,41.00
2019-04-27T09:32:25.522Z,41.30
2019-04-27T09:34:59.529Z,41.40
2019-04-27T09:37:31.029Z,41.60
2019-04-27T09:40:03.579Z,42.60
2019-04-27T09:42:36.281Z,41.80
2019-04-27T09:45:11.850Z,41.20
2019-04-27T09:47:43.298Z,41.80
2019-04-27T09:50:16.211Z,41.30
2019-04-27T09:52:47.907Z,41.50
2019-04-27T09:55:20.683Z,41.60
2019-04-27T09:57:52.448Z,41.40
2019-04-27T10:00:27.513Z,41.40
2019-04-27T10:03:01.108Z,41.60
2019-04-27T10:05:33.593Z,41.20
2019-04-27T10:08:08.473Z,41.90
2019-04-27T10:10:40.197Z,42.20
2019-04-27T10:13:14.921Z,42.20
2019-04-27T10:15:48.185Z,42.30
2019-04-27T10:18:20.499Z,42.20
2019-04-27T10:20:59.672Z,42.30
2019-04-27T10:23:27.178Z,42.50
2019-04-27T10:26:00.140Z,43.10
2019-04-27T10:28:32.788Z,42.50
2019-04-27T10:31:07.314Z,42.60
2019-04-27T10:33:39.969Z,42.60
2019-04-27T10:36:13.129Z,43.50
2019-04-27T10:38:48.133Z,42.60
2019-04-27T10:41:20.365Z,42.80
2019-04-27T10:43:55.001Z,42.90
2019-04-27T10:46:28.561Z,43.10
2019-04-27T10:49:01.540Z,43.10
2019-04-27T10:51:36.247Z,43.30
2019-04-27T10:54:08.741Z,43.50
2019-04-27T10:56:41.526Z,43.60
2019-04-27T10:59:14.061Z,43.60
2019-04-27T11:01:48.358Z,43.70
2019-04-27T11:04:25.956Z,43.60
2019-04-27T11:07:05.491Z,43.30
2019-04-27T11:09:38.715Z,43.40
2019-04-27T11:12:12.962Z,43.70
2019-04-27T11:14:44.542Z,43.80
2019-04-27T11:17:16.412Z,43.90
2019-04-27T11:19:48.946Z,44.00
2019-04-27T11:22:23.270Z,44.20
2019-04-27T11:24:56.424Z,44.30
2019-04-27T11:27:30.382Z,44.30
2019-04-27T11:30:02.073Z,44.50
2019-04-27T11:32:34.817Z,44.70
2019-04-27T11:35:11.152Z,45.20
2019-04-27T11:37:45.596Z,45.30
2019-04-27T11:40:18.234Z,45.30
2019-04-27T11:42:50.786Z,45.20
2019-04-27T11:45:26.486Z,45.10
2019-04-27T11:47:59.960Z,45.40
2019-04-27T11:50:31.458Z,45.70
2019-04-27T11:53:06.201Z,45.90
2019-04-27T11:55:39.032Z,45.90
2019-04-27T11:58:11.733Z,46.30
2019-04-27T12:00:44.315Z,46.30
2019-04-27T12:03:16.607Z,46.50
2019-04-27T12:05:49.286Z,46.50
2019-04-27T12:08:20.909Z,46.50
2019-04-27T12:10:55.250Z,46.70
2019-04-27T12:13:29.853Z,46.90
2019-04-27T12:16:03.943Z,46.90
2019-04-27T12:18:38.408Z,47.00
2019-04-27T12:21:11.078Z,47.20
2019-04-27T12:23:43.821Z,47.10
2019-04-27T12:26:18.342Z,47.00
2019-04-27T12:28:52.892Z,47.10
2019-04-27T12:31:35.934Z,47.10
2019-04-27T12:34:08.904Z,47.40
2019-04-27T12:36:41.629Z,47.20
2019-04-27T12:39:15.690Z,47.00
2019-04-27T12:41:51.324Z,47.00
2019-04-27T12:44:23.617Z,47.00
2019-04-27T12:46:57.728Z,46.90
2019-04-27T12:49:30.215Z,46.90
2019-04-27T12:52:01.618Z,46.90
2019-04-27T12:54:37.569Z,46.90
2019-04-27T12:57:23.284Z,47.10
2019-04-27T13:00:06.529Z,47.10
2019-04-27T13:02:40.985Z,47.30
2019-04-27T13:05:12.446Z,47.40
2019-04-27T13:07:50.585Z,47.40
2019-04-27T13:10:21.954Z,47.40
2019-04-27T13:12:56.081Z,47.50
2019-04-27T13:15:28.437Z,47.50
2019-04-27T13:18:00.186Z,47.40
2019-04-27T13:20:33.090Z,47.40
2019-04-27T13:23:07.150Z,47.30
2019-04-27T13:25:39.689Z,47.40
2019-04-27T13:28:12.672Z,47.30
2019-04-27T13:30:47.450Z,47.20
2019-04-27T13:33:19.783Z,47.10
2019-04-27T13:35:54.260Z,47.10
2019-04-27T13:38:26.957Z,47.20
2019-04-27T13:41:08.240Z,47.20
2019-04-27T13:43:41.739Z,47.40
2019-04-27T13:46:16.069Z,47.40
2019-04-27T13:49:08.269Z,47.40
2019-04-27T13:51:58.144Z,47.70
2019-04-27T13:54:31.572Z,47.70
2019-04-27T13:57:03.037Z,47.90
2019-04-27T13:59:35.374Z,47.80
2019-04-27T14:02:13.569Z,47.80
2019-04-27T14:04:45.701Z,47.80
2019-04-27T14:07:18.328Z,47.80
2019-04-27T14:09:50.492Z,47.90
2019-04-27T14:12:25.546Z,47.90
2019-04-27T14:14:59.941Z,48.40
2019-04-27T14:17:34.014Z,48.30
2019-04-27T14:20:07.895Z,48.20
2019-04-27T14:22:45.360Z,48.20
2019-04-27T14:25:18.144Z,48.20
2019-04-27T14:27:50.755Z,48.20
2019-04-27T14:30:25.615Z,48.10
2019-04-27T14:32:59.690Z,48.50
2019-04-27T14:35:32.095Z,48.40
2019-04-27T14:38:04.825Z,48.30
2019-04-27T14:40:39.096Z,48.30
2019-04-27T14:43:11.588Z,48.30
2019-04-27T14:45:48.642Z,48.20
2019-04-27T14:48:20.657Z,48.30
2019-04-27T14:50:53.520Z,48.40
2019-04-27T14:53:28.211Z,49.10
2019-04-27T14:56:02.245Z,48.60
2019-04-27T14:58:34.875Z,49.60
2019-04-27T15:01:09.562Z,49.80
2019-04-27T15:03:43.948Z,49.90
2019-04-27T15:06:19.650Z,49.60
2019-04-27T15:08:51.437Z,49.90
2019-04-27T15:11:24.714Z,50.20
2019-04-27T15:13:59.549Z,50.00
2019-04-27T15:16:33.265Z,50.30
2019-04-27T15:19:07.101Z,49.70
2019-04-27T15:21:43.304Z,49.60
2019-04-27T15:24:15.604Z,49.50
2019-04-27T15:26:47.293Z,49.80
2019-04-27T15:29:20.512Z,50.00
2019-04-27T15:31:55.941Z,49.60
2019-04-27T15:34:34.042Z,49.50
2019-04-27T15:37:07.868Z,50.10
2019-04-27T15:39:48.943Z,50.10
2019-04-27T15:42:41.625Z,50.30
2019-04-27T15:45:15.854Z,50.50
2019-04-27T15:47:54.190Z,50.40
2019-04-27T15:50:23.569Z,50.50
2019-04-27T15:52:56.695Z,50.40
2019-04-27T15:55:35.088Z,50.50
2019-04-27T15:58:09.641Z,50.40
2019-04-27T16:00:41.887Z,50.40
2019-04-27T16:03:22.713Z,50.50
2019-04-27T16:08:50.205Z,50.70
2019-04-27T16:11:24.917Z,50.90
2019-04-27T16:13:58.763Z,50.90
2019-04-27T16:16:34.381Z,50.80
2019-04-27T16:19:08.847Z,51.00
2019-04-27T16:21:46.944Z,51.10
2019-04-27T16:24:17.017Z,51.10
2019-04-27T16:26:52.202Z,51.30
2019-04-27T16:29:28.050Z,51.10
2019-04-27T16:32:02.806Z,51.20
2019-04-27T16:34:37.844Z,51.60
2019-04-27T16:37:14.063Z,51.50
2019-04-27T16:39:47.864Z,51.40
2019-04-27T16:42:19.181Z,51.90
2019-04-27T16:44:53.246Z,52.10
2019-04-27T16:47:24.925Z,52.50
2019-04-27T16:49:58.592Z,52.80
2019-04-27T16:52:31.340Z,53.10
2019-04-27T16:55:05.664Z,53.40
2019-04-27T16:57:40.078Z,53.60
2019-04-27T17:00:18.228Z,53.70
2019-04-27T17:03:01.369Z,53.60
2019-04-27T17:05:34.677Z,53.50
2019-04-27T17:08:05.936Z,53.50
2019-04-27T17:10:40.094Z,54.00
2019-04-27T17:13:14.650Z,53.70
2019-04-27T17:16:09.197Z,53.30
2019-04-27T17:18:52.727Z,53.20
2019-04-27T17:21:25.370Z,53.60
2019-04-27T17:24:02.842Z,53.20
2019-04-27T17:26:35.513Z,53.40
2019-04-27T17:29:16.061Z,52.90
2019-04-27T17:31:50.487Z,53.20
2019-04-27T17:34:25.117Z,53.00
2019-04-27T17:36:56.693Z,53.30
2019-04-27T17:39:29.822Z,54.10
2019-04-27T17:42:01.419Z,54.10
2019-04-27T17:44:36.015Z,53.80
2019-04-27T17:47:10.651Z,54.00
2019-04-27T17:49:43.448Z,54.40
2019-04-27T17:52:17.162Z,54.30
2019-04-27T17:54:51.620Z,54.00
2019-04-27T17:57:30.113Z,54.50
2019-04-27T18:00:03.374Z,55.20
2019-04-27T18:02:40.040Z,55.50
2019-04-27T18:05:13.174Z,56.40
2019-04-27T18:07:45.670Z,56.60
2019-04-27T18:10:24.253Z,56.80
2019-04-27T18:12:58.154Z,57.30
2019-04-27T18:15:30.863Z,57.30
2019-04-27T18:18:13.378Z,58.00
2019-04-27T18:20:47.818Z,57.90
2019-04-27T18:26:17.423Z,58.90
2019-04-27T18:28:50.564Z,58.40
2019-04-27T18:31:25.572Z,58.80
2019-04-27T18:33:58.836Z,58.50
2019-04-27T18:36:31.781Z,58.40
2019-04-27T18:39:05.498Z,58.70
2019-04-27T18:41:44.360Z,58.60
2019-04-27T18:44:12.109Z,58.70
2019-04-27T18:46:44.644Z,58.70
2019-04-27T18:49:34.123Z,59.30
2019-04-27T18:52:09.549Z,58.70
2019-04-27T18:54:42.128Z,58.30
2019-04-27T18:57:15.318Z,58.60
2019-04-27T18:59:48.997Z,58.10
2019-04-27T19:02:20.640Z,58.70
2019-04-27T19:04:53.643Z,58.10
2019-04-27T19:07:26.381Z,58.90
2019-04-27T19:09:59.184Z,59.00
2019-04-27T19:12:33.324Z,58.90
2019-04-27T19:15:08.153Z,59.30
2019-04-27T19:17:41.071Z,59.40
2019-04-27T19:20:12.666Z,59.30
2019-04-27T19:22:46.005Z,59.50
2019-04-27T19:25:36.575Z,59.60
2019-04-27T19:28:10.702Z,59.60
2019-04-27T19:30:47.552Z,59.10
2019-04-27T19:33:19.759Z,59.60
2019-04-27T19:35:55.712Z,60.10
2019-04-27T19:38:28.957Z,59.10
2019-04-27T19:41:00.434Z,58.90
2019-04-27T19:43:32.851Z,59.30
2019-04-27T19:46:07.381Z,59.30
2019-04-27T19:48:39.057Z,59.10
2019-04-27T19:51:12.789Z,59.20
2019-04-27T19:53:45.373Z,59.30
2019-04-27T19:56:19.318Z,59.40
2019-04-27T19:58:52.359Z,59.40
2019-04-27T20:01:32.001Z,59.70
2019-04-27T20:04:12.923Z,59.40
2019-04-27T20:06:45.639Z,59.20
2019-04-27T20:09:25.661Z,59.60
2019-04-27T20:11:57.006Z,59.50
2019-04-27T20:14:30.838Z,59.50
2019-04-27T20:17:04.298Z,59.60
2019-04-27T20:19:36.735Z,59.60
2019-04-27T20:22:08.152Z,59.60
2019-04-27T20:24:41.475Z,59.50
2019-04-27T20:27:13.804Z,59.70
2019-04-27T20:29:45.348Z,59.30
2019-04-27T20:32:16.937Z,59.30
2019-04-27T20:34:48.540Z,59.70
2019-04-27T20:37:21.392Z,59.70
2019-04-27T20:39:53.826Z,59.60
2019-04-27T20:42:25.277Z,59.60
2019-04-27T20:45:01.601Z,59.70
2019-04-27T20:47:32.411Z,59.80
2019-04-27T20:50:03.974Z,59.70
2019-04-27T20:52:38.614Z,60.10
2019-04-27T20:55:11.333Z,60.20
2019-04-27T20:57:58.465Z,60.20
2019-04-27T21:00:21.944Z,60.10
2019-04-27T21:02:58.628Z,60.60
2019-04-27T21:05:35.361Z,60.90
2019-04-27T21:08:11.762Z,60.60
2019-04-27T21:10:44.211Z,61.20
2019-04-27T21:13:18.690Z,61.40
2019-04-27T21:15:53.162Z,61.00
2019-04-27T21:18:26.276Z,61.30
2019-04-27T21:20:58.894Z,61.40
2019-04-27T21:23:31.654Z,61.20
2019-04-27T21:26:03.948Z,61.50
2019-04-27T21:28:37.810Z,61.10
2019-04-27T21:31:12.462Z,61.60
2019-04-27T21:33:43.268Z,62.10
2019-04-27T21:36:16.125Z,62.00
2019-04-27T21:38:51.262Z,61.60
2019-04-27T21:41:23.275Z,62.60
2019-04-27T21:43:55.037Z,63.20
2019-04-27T21:46:26.471Z,62.60
2019-04-27T21:48:57.997Z,63.00
2019-04-27T21:51:32.432Z,62.50
2019-04-27T21:54:18.608Z,62.40
2019-04-27T21:56:51.690Z,63.00
2019-04-27T21:59:23.025Z,63.10
2019-04-27T22:01:56.092Z,62.90
2019-04-27T22:04:31.487Z,63.50
2019-04-27T22:07:04.418Z,63.10
2019-04-27T22:09:35.721Z,63.10
2019-04-27T22:12:08.468Z,63.40
2019-04-27T22:14:40.744Z,63.60
2019-04-27T22:17:12.528Z,64.20
2019-04-27T22:19:45.028Z,64.20
2019-04-27T22:22:21.065Z,63.90
2019-04-27T22:24:54.381Z,64.00
2019-04-27T22:27:26.011Z,64.40
2019-04-27T22:29:57.537Z,64.00
2019-04-27T22:32:30.629Z,64.30
2019-04-27T22:35:04.723Z,63.80
2019-04-27T22:37:36.300Z,64.90
2019-04-27T22:40:31.564Z,65.80
2019-04-27T22:43:09.398Z,65.30
2019-04-27T22:45:43.666Z,65.00
2019-04-27T22:48:15.242Z,65.20
2019-04-27T22:50:47.966Z,66.40
2019-04-27T22:53:20.466Z,66.20
2019-04-27T22:56:11.444Z,65.80
2019-04-27T22:58:57.355Z,66.70
2019-04-27T23:01:21.920Z,66.40
2019-04-27T23:03:54.483Z,66.40
2019-04-27T23:06:26.960Z,66.90
2019-04-27T23:08:58.650Z,67.10
2019-04-27T23:11:31.365Z,66.60
2019-04-27T23:14:04.985Z,67.50
2019-04-27T23:16:37.741Z,67.80
2019-04-27T23:19:10.881Z,68.00
2019-04-27T23:21:43.852Z,67.70
2019-04-27T23:24:15.402Z,67.00
2019-04-27T23:26:47.949Z,68.20
2019-04-27T23:29:21.965Z,67.40
2019-04-27T23:31:58.695Z,67.80
2019-04-27T23:34:33.437Z,67.50
2019-04-27T23:37:05.888Z,67.70
2019-04-27T23:39:38.566Z,68.20
2019-04-27T23:42:11.586Z,68.40
2019-04-27T23:44:44.548Z,68.50
2019-04-27T23:47:17.100Z,68.70
2019-04-27T23:49:50.862Z,68.70
2019-04-27T23:52:24.793Z,68.60
2019-04-27T23:54:56.681Z,68.70
2019-04-27T23:57:28.592Z,68.90
